X  Schließen METAR Luftfahrt Wetterdaten     ETAR Ramstein Air Base
Temperatur
10°C Temperatur
5°C Taupunkt
71% Feuchtigkeit



Wind
5 KM/H
3 MPH
1 M/S
3 KTS



240°
WSW
Aktuelle Wetterlage

Teilweise bewölkt Teilweise bewölkt
Luftdruck 999.66 (hPa) - 29.52 (inHg)
Sichtweite 6 (Meile) - 9.7 (Km)
Flughafen
Flughafen Code ETAR

Position : Ramstein Air Base
Entfernung: 25 (Km)

Metar:
ETAR 031755Z AUTO 24003KT 9999 FEW150 10/05 A2952 RMK AO2 SLP003 T00960050 10157 20096 53022

Zeit: 03-03-2024 18:55 CET